Time;durP1;ratioP1;P1;durP2;ratioP2;P2;SDS_P1;SDS_P2;PMS_P1;PMS_P2;Temp;Humidity;BMP_temperature;BMP_pressure;BME280_temperature;BME280_humidity;BME280_pressure;Samples;Min_cycle;Max_cycle;Signal;HPM_P1;HPM_P2
2021/10/17 00:00:40;;;;;;;12.82;4.90;;;;;;;10.71;65.59;102002.03;5053201;28;20024;-69
2021/10/17 00:03:06;;;;;;;15.98;5.00;;;;;;;10.67;65.67;102003.28;5053106;28;20025;-70
2021/10/17 00:05:33;;;;;;;16.08;5.40;;;;;;;10.60;65.96;101995.38;5053164;28;20464;-69
2021/10/17 00:07:58;;;;;;;13.05;5.25;;;;;;;10.54;66.40;102008.13;5052774;28;20421;-69
2021/10/17 00:10:26;;;;;;;17.50;5.53;;;;;;;10.60;66.45;101994.56;5051441;28;20060;-70
2021/10/17 00:12:54;;;;;;;17.77;5.38;;;;;;;10.61;66.50;102002.16;5052888;28;20033;-69
2021/10/17 00:15:20;;;;;;;13.05;5.05;;;;;;;10.63;66.51;101989.06;5051728;28;20029;-70
2021/10/17 00:17:46;;;;;;;12.20;5.18;;;;;;;10.57;66.30;101993.09;5052963;28;20021;-69
2021/10/17 00:20:14;;;;;;;18.65;5.50;;;;;;;10.42;67.33;101999.84;5053975;28;20036;-69
2021/10/17 00:22:40;;;;;;;15.35;5.75;;;;;;;10.49;67.07;102000.03;5055617;28;20467;-69
2021/10/17 00:25:07;;;;;;;16.48;5.43;;;;;;;10.53;67.32;101994.41;5056744;28;20029;-70
2021/10/17 00:27:32;;;;;;;13.85;5.40;;;;;;;10.58;66.71;101993.91;5057292;28;20037;-70
2021/10/17 00:29:58;;;;;;;14.02;5.50;;;;;;;10.48;67.65;101994.03;5055454;28;20476;-69
2021/10/17 00:32:23;;;;;;;14.85;5.78;;;;;;;10.54;66.97;101995.19;5056700;28;20029;-69
2021/10/17 00:34:49;;;;;;;17.52;5.75;;;;;;;10.59;67.41;101987.78;5056671;28;20032;-69
2021/10/17 00:37:16;;;;;;;15.13;5.28;;;;;;;10.55;67.37;101992.44;5056860;28;20025;-70
2021/10/17 00:39:41;;;;;;;14.48;5.10;;;;;;;10.48;67.79;101996.63;5055263;28;20024;-69
2021/10/17 00:42:07;;;;;;;19.33;5.90;;;;;;;10.42;67.98;101997.25;5056576;28;20495;-69
2021/10/17 00:44:32;;;;;;;14.70;5.82;;;;;;;10.44;67.54;101992.72;5056438;28;20024;-70
2021/10/17 00:46:58;;;;;;;16.10;5.45;;;;;;;10.41;67.93;101992.22;5056571;28;20120;-70
2021/10/17 00:49:23;;;;;;;16.23;5.57;;;;;;;10.37;67.95;101989.97;5056410;28;20025;-70
2021/10/17 00:51:49;;;;;;;25.13;6.15;;;;;;;10.44;67.38;101997.88;5056680;28;20044;-69
2021/10/17 00:54:15;;;;;;;15.68;5.68;;;;;;;10.48;67.15;101978.53;5056343;28;20056;-69
2021/10/17 00:56:43;;;;;;;13.75;5.22;;;;;;;10.41;67.81;101987.88;5056512;28;20025;-70
2021/10/17 00:59:09;;;;;;;22.98;5.03;;;;;;;10.41;67.39;101977.53;5056292;28;20017;-70
2021/10/17 01:01:35;;;;;;;12.80;5.63;;;;;;;10.47;67.25;101971.75;5055000;28;20471;-69
2021/10/17 01:04:01;;;;;;;15.48;5.18;;;;;;;10.53;67.04;101971.13;5055052;28;20274;-70
2021/10/17 01:06:27;;;;;;;18.52;5.32;;;;;;;10.48;67.17;101968.19;5056416;28;20052;-69
2021/10/17 01:08:52;;;;;;;11.98;5.25;;;;;;;10.51;67.00;101973.06;5056437;28;20025;-69
2021/10/17 01:11:17;;;;;;;22.55;5.60;;;;;;;10.49;67.03;101963.84;5056307;28;20025;-70
2021/10/17 01:13:43;;;;;;;11.70;5.00;;;;;;;10.51;66.85;101970.47;5056868;28;20035;-70
2021/10/17 01:16:08;;;;;;;14.95;5.05;;;;;;;10.47;67.09;101963.19;5055092;28;20023;-69
2021/10/17 01:18:33;;;;;;;11.00;5.35;;;;;;;10.51;66.90;101962.72;5056393;28;20464;-70
2021/10/17 01:20:59;;;;;;;11.15;5.70;;;;;;;10.47;66.95;101960.59;5056950;28;20099;-70
2021/10/17 01:23:24;;;;;;;19.15;6.00;;;;;;;10.38;67.34;101963.16;5055322;28;20108;-69
2021/10/17 01:25:50;;;;;;;14.05;5.35;;;;;;;10.38;67.11;101957.19;5056610;28;20108;-68
2021/10/17 01:28:15;;;;;;;15.93;5.95;;;;;;;10.35;67.56;101966.03;5056707;28;20541;-70
2021/10/17 01:30:41;;;;;;;13.52;5.25;;;;;;;10.37;67.94;101964.13;5056862;28;20087;-71
2021/10/17 01:33:06;;;;;;;19.98;5.75;;;;;;;10.38;67.84;101962.34;5060008;28;20404;-73
2021/10/17 01:35:32;;;;;;;14.98;5.55;;;;;;;10.41;67.12;101962.03;5061902;28;20028;-73
2021/10/17 01:37:57;;;;;;;16.40;5.88;;;;;;;10.41;67.50;101969.78;5062131;28;20029;-71
2021/10/17 01:40:23;;;;;;;15.32;5.55;;;;;;;10.45;67.42;101963.34;5062808;28;20032;-72
2021/10/17 01:42:48;;;;;;;17.40;5.68;;;;;;;10.38;67.47;101963.16;5063110;28;20028;-72
2021/10/17 01:45:14;;;;;;;16.25;5.28;;;;;;;10.22;67.48;101962.28;5062374;28;20029;-71
2021/10/17 01:47:51;;;;;;;14.60;5.75;;;;;;;10.19;68.09;101967.75;5062870;28;20102;-71
2021/10/17 01:50:17;;;;;;;17.30;6.20;;;;;;;9.91;68.29;101922.25;5060349;28;20419;-70
2021/10/17 01:52:43;;;;;;;13.00;5.43;;;;;;;10.16;68.71;101950.78;5057634;28;20508;-70
2021/10/17 01:55:09;;;;;;;15.98;5.80;;;;;;;10.11;68.69;101946.06;5057946;28;20025;-71
2021/10/17 01:57:34;;;;;;;13.52;5.57;;;;;;;10.03;68.67;101946.03;5056315;28;20529;-71
2021/10/17 02:00:00;;;;;;;13.93;5.50;;;;;;;10.14;68.51;101958.69;5056519;28;20017;-71
2021/10/17 02:02:25;;;;;;;15.15;5.72;;;;;;;10.05;68.76;101957.03;5055541;28;20380;-71
2021/10/17 02:04:50;;;;;;;16.33;5.90;;;;;;;10.02;69.48;101954.75;5056713;28;20083;-70
2021/10/17 02:07:15;;;;;;;14.77;5.75;;;;;;;10.00;69.71;101966.19;5056609;28;20111;-70
2021/10/17 02:09:41;;;;;;;16.35;5.95;;;;;;;10.11;69.96;101960.75;5056432;28;20029;-70
2021/10/17 02:12:06;;;;;;;16.95;5.60;;;;;;;10.10;69.64;101959.16;5056310;28;20025;-70
2021/10/17 02:14:32;;;;;;;13.75;6.05;;;;;;;10.09;70.43;101958.31;5055879;28;20086;-70
2021/10/17 02:16:57;;;;;;;14.40;6.00;;;;;;;10.13;68.91;101958.84;5054415;28;20100;-70
2021/10/17 02:19:22;;;;;;;13.90;5.90;;;;;;;10.07;69.36;101957.69;5053973;28;20068;-70
2021/10/17 02:21:48;;;;;;;16.15;5.53;;;;;;;10.00;70.15;101963.63;5053953;28;20140;-70
2021/10/17 02:24:13;;;;;;;17.70;5.70;;;;;;;9.97;69.88;101961.34;5054990;28;20031;-70
2021/10/17 02:26:38;;;;;;;16.13;5.57;;;;;;;9.86;70.23;101962.41;5054777;28;20362;-70
2021/10/17 02:29:05;;;;;;;15.20;5.68;;;;;;;9.94;70.21;101952.94;5054802;28;20472;-70
2021/10/17 02:31:30;;;;;;;19.42;5.55;;;;;;;10.02;69.42;101952.16;5054552;28;20384;-70
2021/10/17 02:33:55;;;;;;;17.63;6.70;;;;;;;10.00;69.30;101955.88;5054681;28;20029;-70
2021/10/17 02:36:20;;;;;;;17.27;5.72;;;;;;;10.00;69.61;101950.69;5054528;28;20380;-69
2021/10/17 02:38:46;;;;;;;15.38;5.80;;;;;;;10.00;70.43;101958.44;5054541;28;20036;-68
2021/10/17 02:41:11;;;;;;;13.98;5.78;;;;;;;10.01;69.45;101953.16;5054595;28;20052;-68
2021/10/17 02:43:36;;;;;;;11.77;5.43;;;;;;;9.93;69.12;101946.16;5054313;28;20021;-68
2021/10/17 02:46:02;;;;;;;15.23;6.43;;;;;;;9.96;69.43;101952.00;5054365;28;20033;-69
2021/10/17 02:48:27;;;;;;;14.50;5.63;;;;;;;10.03;69.33;101951.19;5054629;28;20017;-68
2021/10/17 02:50:52;;;;;;;17.63;6.03;;;;;;;9.97;69.73;101948.44;5054457;28;20112;-69
2021/10/17 02:53:18;;;;;;;19.10;6.38;;;;;;;10.03;70.01;101950.41;5054155;28;20376;-69
2021/10/17 02:55:43;;;;;;;21.35;5.82;;;;;;;10.05;69.16;101946.69;5054153;28;20024;-69
2021/10/17 02:58:08;;;;;;;19.70;6.18;;;;;;;10.02;69.04;101949.59;5052717;28;20464;-69
2021/10/17 03:00:34;;;;;;;17.13;5.47;;;;;;;10.03;69.26;101943.44;5054094;28;20029;-69
2021/10/17 03:02:59;;;;;;;16.23;6.00;;;;;;;10.02;69.80;101944.41;5054226;28;20475;-69
2021/10/17 03:05:24;;;;;;;18.92;5.82;;;;;;;9.87;70.70;101940.81;5053845;28;20025;-69
2021/10/17 03:07:49;;;;;;;11.88;5.82;;;;;;;9.87;70.82;101938.22;5054120;28;20021;-69
2021/10/17 03:10:15;;;;;;;15.70;6.00;;;;;;;9.73;70.15;101941.38;5053899;28;20494;-69
2021/10/17 03:12:40;;;;;;;12.43;5.75;;;;;;;9.72;71.53;101945.69;5053879;28;20167;-70
2021/10/17 03:15:06;;;;;;;14.02;5.15;;;;;;;9.74;70.27;101948.16;5052497;28;20020;-69
2021/10/17 03:17:32;;;;;;;15.05;5.70;;;;;;;9.80;70.36;101947.53;5053791;28;20033;-70
2021/10/17 03:19:57;;;;;;;13.13;5.55;;;;;;;9.57;71.37;101942.88;5053706;28;20028;-69
2021/10/17 03:22:23;;;;;;;17.92;5.78;;;;;;;9.66;71.49;101938.56;5053662;28;20031;-69
2021/10/17 03:24:48;;;;;;;18.98;6.20;;;;;;;9.57;71.75;101942.88;5052221;28;20546;-69
2021/10/17 03:27:13;;;;;;;21.52;5.90;;;;;;;9.55;71.70;101933.66;5052208;28;20021;-69
2021/10/17 03:29:39;;;;;;;14.45;5.72;;;;;;;9.57;71.96;101931.75;5053555;28;20017;-69
2021/10/17 03:32:04;;;;;;;17.38;5.93;;;;;;;9.57;71.89;101936.91;5053567;28;20021;-69
2021/10/17 03:34:30;;;;;;;16.63;5.75;;;;;;;9.61;71.73;101933.88;5053546;28;20388;-69
2021/10/17 03:36:56;;;;;;;15.40;5.75;;;;;;;9.71;71.58;101941.50;5053343;28;20456;-69
2021/10/17 03:39:21;;;;;;;15.65;5.38;;;;;;;9.68;72.17;101934.88;5053463;28;20029;-69
2021/10/17 03:41:46;;;;;;;16.27;5.80;;;;;;;9.71;71.45;101941.50;5053400;28;20039;-70
2021/10/17 03:44:11;;;;;;;19.73;6.00;;;;;;;9.73;71.81;101929.28;5053371;28;20061;-69
2021/10/17 03:46:37;;;;;;;20.65;6.00;;;;;;;9.71;71.78;101934.56;5053251;28;20036;-70
2021/10/17 03:49:02;;;;;;;13.48;5.15;;;;;;;9.78;71.65;101921.88;5051981;28;20029;-69
2021/10/17 03:51:27;;;;;;;17.67;6.30;;;;;;;9.78;70.64;101927.06;5051956;28;20029;-70
2021/10/17 03:53:52;;;;;;;14.25;5.75;;;;;;;9.79;71.13;101920.91;5053107;28;20053;-69
2021/10/17 03:56:18;;;;;;;16.15;5.82;;;;;;;9.75;71.99;101929.91;5056189;28;20013;-69
2021/10/17 03:58:43;;;;;;;14.45;6.15;;;;;;;9.80;70.98;101924.28;5057346;28;20051;-69
2021/10/17 04:01:09;;;;;;;19.50;5.78;;;;;;;9.88;70.96;101929.50;5056267;28;20457;-69
2021/10/17 04:03:35;;;;;;;23.95;6.28;;;;;;;9.89;70.69;101928.53;5057578;28;20025;-69
2021/10/17 04:06:00;;;;;;;18.55;5.93;;;;;;;9.84;70.82;101904.94;5057188;28;20078;-69
2021/10/17 04:08:25;;;;;;;15.13;6.82;;;;;;;9.96;70.50;101934.72;5057483;28;20021;-70
2021/10/17 04:10:51;;;;;;;16.15;5.82;;;;;;;9.97;70.78;101932.94;5057189;28;20490;-69
2021/10/17 04:13:16;;;;;;;13.55;6.03;;;;;;;9.89;71.63;101934.50;5055782;28;20037;-70
2021/10/17 04:15:41;;;;;;;18.48;6.60;;;;;;;9.94;71.35;101934.06;5057300;28;20021;-70
2021/10/17 04:18:07;;;;;;;17.05;6.22;;;;;;;9.95;71.59;101938.25;5057561;28;20094;-69
2021/10/17 04:20:32;;;;;;;15.02;6.25;;;;;;;10.04;70.95;101934.75;5055651;28;20029;-69
2021/10/17 04:22:59;;;;;;;19.90;6.20;;;;;;;10.06;71.33;101927.66;5056892;28;20025;-70
2021/10/17 04:25:24;;;;;;;17.27;7.40;;;;;;;10.11;70.71;101915.06;5056850;28;20488;-69
2021/10/17 04:27:50;;;;;;;13.85;6.63;;;;;;;10.12;70.97;101914.09;5057146;28;20074;-70
2021/10/17 04:30:16;;;;;;;15.30;6.70;;;;;;;10.10;71.08;101916.06;5058054;28;20044;-70
2021/10/17 04:32:41;;;;;;;18.85;6.50;;;;;;;10.13;70.32;101917.53;5055522;28;20094;-69
2021/10/17 04:35:10;;;;;;;15.82;6.53;;;;;;;10.12;70.25;101916.69;5057261;28;20025;-69
2021/10/17 04:37:36;;;;;;;15.88;6.40;;;;;;;10.21;70.10;101917.53;5056681;28;20064;-69
2021/10/17 04:40:04;;;;;;;19.58;6.70;;;;;;;10.09;70.36;101904.09;5056886;28;20443;-69
2021/10/17 04:42:30;;;;;;;17.67;6.65;;;;;;;10.25;70.13;101918.03;5056505;28;20115;-69
2021/10/17 04:44:55;;;;;;;19.60;7.35;;;;;;;10.22;69.72;101908.81;5056472;28;20471;-69
2021/10/17 04:47:20;;;;;;;19.42;6.18;;;;;;;10.22;69.38;101915.78;5056485;28;20060;-69
2021/10/17 04:49:46;;;;;;;23.58;7.20;;;;;;;10.23;69.47;101905.25;5056397;28;20028;-69
2021/10/17 04:52:11;;;;;;;18.25;6.38;;;;;;;10.29;69.79;101917.59;5056335;28;20380;-69
2021/10/17 04:54:36;;;;;;;21.55;6.95;;;;;;;10.35;69.38;101922.13;5056211;28;20106;-71
2021/10/17 04:57:01;;;;;;;16.65;6.05;;;;;;;10.39;69.44;101915.69;5056600;28;20028;-69
2021/10/17 04:59:27;;;;;;;18.77;6.95;;;;;;;10.39;68.75;101902.75;5056325;28;20025;-69
2021/10/17 05:01:52;;;;;;;15.38;6.90;;;;;;;10.40;68.76;101898.41;5056498;28;20368;-69
2021/10/17 05:04:18;;;;;;;14.82;6.95;;;;;;;10.19;68.80;101867.81;5056102;28;20460;-69
2021/10/17 05:06:43;;;;;;;21.35;6.32;;;;;;;10.29;69.03;101904.66;5054759;28;20047;-69
2021/10/17 05:09:09;;;;;;;17.58;6.97;;;;;;;10.28;69.34;101910.81;5054833;28;20155;-69
2021/10/17 05:11:34;;;;;;;16.77;6.47;;;;;;;10.27;70.03;101919.53;5056055;28;20387;-69
2021/10/17 05:13:59;;;;;;;21.42;7.18;;;;;;;10.30;69.56;101920.97;5056214;28;20021;-69
2021/10/17 05:16:25;;;;;;;16.95;6.60;;;;;;;10.41;69.34;101919.88;5056033;28;20021;-69
2021/10/17 05:18:50;;;;;;;21.60;7.05;;;;;;;10.33;68.78;101916.31;5055856;28;20036;-69
2021/10/17 05:21:15;;;;;;;17.60;6.57;;;;;;;10.30;69.10;101911.47;5055875;28;20383;-69
2021/10/17 05:23:40;;;;;;;17.33;7.20;;;;;;;10.33;69.22;101908.56;5055844;28;20075;-69
2021/10/17 05:26:06;;;;;;;19.08;6.75;;;;;;;10.34;69.59;101914.53;5055702;28;20383;-69
2021/10/17 05:28:31;;;;;;;17.35;7.32;;;;;;;10.24;70.52;101926.75;5055685;28;20082;-69
2021/10/17 05:31:00;;;;;;;17.27;6.60;;;;;;;10.20;70.52;101917.69;5055587;28;20033;-69
2021/10/17 05:33:28;;;;;;;18.88;7.13;;;;;;;10.27;70.47;101931.63;5055894;28;20472;-70
2021/10/17 05:35:53;;;;;;;19.90;7.68;;;;;;;10.32;70.38;101929.38;5055491;28;20376;-70
2021/10/17 05:38:21;;;;;;;14.73;6.55;;;;;;;10.27;70.37;101934.19;5055506;28;20025;-71
2021/10/17 05:40:46;;;;;;;22.33;7.63;;;;;;;10.28;70.12;101934.06;5056090;28;20021;-69
2021/10/17 05:43:12;;;;;;;19.35;7.40;;;;;;;10.33;70.16;101939.56;5055480;28;20495;-69
2021/10/17 05:45:37;;;;;;;19.48;8.10;;;;;;;10.26;70.54;101929.97;5056400;28;20167;-70
2021/10/17 05:48:02;;;;;;;23.77;8.25;;;;;;;10.26;70.76;101935.16;5054635;28;20029;-68
2021/10/17 05:50:28;;;;;;;23.10;7.93;;;;;;;10.28;70.68;101931.47;5055482;28;20440;-68
2021/10/17 05:52:53;;;;;;;22.42;7.72;;;;;;;10.25;70.89;101942.09;5055459;28;20488;-68
2021/10/17 05:55:18;;;;;;;17.70;7.93;;;;;;;10.22;71.43;101939.81;5055455;28;20021;-69
2021/10/17 05:57:44;;;;;;;17.92;8.30;;;;;;;10.33;71.02;101949.09;5053954;28;20464;-69
2021/10/17 06:00:09;;;;;;;22.15;8.02;;;;;;;10.23;70.96;101936.25;5055095;28;20043;-70
2021/10/17 06:02:35;;;;;;;22.90;7.75;;;;;;;10.32;70.81;101937.13;5055113;28;20519;-70
2021/10/17 06:05:00;;;;;;;21.90;8.45;;;;;;;10.27;70.91;101939.38;5054099;28;20116;-70
2021/10/17 06:07:25;;;;;;;17.55;7.68;;;;;;;10.31;70.16;101936.34;5055256;28;20096;-70
2021/10/17 06:09:51;;;;;;;23.73;8.80;;;;;;;10.34;70.33;101943.75;5055231;28;20088;-69
2021/10/17 06:12:16;;;;;;;26.65;8.07;;;;;;;10.39;70.25;101953.66;5055474;28;20104;-69
2021/10/17 06:14:41;;;;;;;20.58;7.72;;;;;;;10.36;70.47;101949.59;5053900;28;20090;-70
2021/10/17 06:17:06;;;;;;;17.92;7.65;;;;;;;10.43;69.66;101952.34;5054766;28;20033;-69
2021/10/17 06:19:32;;;;;;;14.63;7.55;;;;;;;10.48;69.82;101960.44;5053158;28;20120;-69
2021/10/17 06:22:02;;;;;;;21.15;7.47;;;;;;;10.44;69.69;101955.75;5054689;28;20021;-70
2021/10/17 06:24:28;;;;;;;16.80;7.40;;;;;;;10.48;69.69;101957.06;5054760;28;20078;-70
2021/10/17 06:26:54;;;;;;;16.00;7.80;;;;;;;10.42;70.06;101950.75;5054624;28;20028;-70
2021/10/17 06:29:19;;;;;;;23.10;7.63;;;;;;;10.35;69.77;101931.66;5055066;28;20103;-71
2021/10/17 06:31:45;;;;;;;19.15;7.65;;;;;;;10.53;69.83;101954.78;5056394;28;20064;-71
2021/10/17 06:34:10;;;;;;;25.15;8.10;;;;;;;10.50;69.86;101960.28;5057205;28;20029;-69
2021/10/17 06:36:35;;;;;;;17.17;7.53;;;;;;;10.48;69.80;101957.06;5054021;28;20024;-69
2021/10/17 06:39:01;;;;;;;22.17;7.55;;;;;;;10.46;69.62;101961.56;5054402;28;20376;-68
2021/10/17 06:41:26;;;;;;;20.60;7.78;;;;;;;10.50;69.76;101961.09;5053102;28;20021;-70
2021/10/17 06:43:51;;;;;;;19.75;7.55;;;;;;;10.52;69.96;101961.75;5054288;28;20032;-70
2021/10/17 06:46:16;;;;;;;25.67;7.07;;;;;;;10.51;69.34;101970.47;5054666;28;20036;-69
2021/10/17 06:48:42;;;;;;;18.02;7.47;;;;;;;10.56;69.56;101970.00;5054673;28;20032;-69
2021/10/17 06:51:07;;;;;;;20.27;8.07;;;;;;;10.52;69.50;101964.31;5054124;28;20021;-72
2021/10/17 06:53:32;;;;;;;19.75;8.05;;;;;;;10.44;69.40;101963.50;5053960;28;20052;-69
2021/10/17 06:55:58;;;;;;;19.58;7.82;;;;;;;10.55;69.18;101963.22;5054122;28;20016;-69
2021/10/17 06:58:23;;;;;;;22.10;8.40;;;;;;;10.48;69.45;101967.41;5052698;28;20119;-71
2021/10/17 07:00:48;;;;;;;21.30;7.82;;;;;;;10.56;69.06;101975.97;5054173;28;20032;-69
2021/10/17 07:03:14;;;;;;;19.92;7.78;;;;;;;10.51;69.11;101965.31;5053993;28;20025;-69
2021/10/17 07:05:39;;;;;;;16.13;7.78;;;;;;;10.63;68.63;101972.78;5053897;28;20035;-70
2021/10/17 07:08:05;;;;;;;19.00;8.07;;;;;;;10.58;68.72;101976.63;5054490;28;20056;-70
2021/10/17 07:10:30;;;;;;;17.05;7.45;;;;;;;10.74;68.15;101970.69;5054156;28;20057;-69
2021/10/17 07:12:55;;;;;;;19.02;8.07;;;;;;;10.81;68.32;101976.81;5054032;28;20028;-70
2021/10/17 07:15:20;;;;;;;17.92;7.45;;;;;;;10.80;67.87;101974.41;5053965;28;20036;-69
2021/10/17 07:17:46;;;;;;;16.98;7.68;;;;;;;10.68;68.80;101975.69;5053717;28;20484;-69
2021/10/17 07:20:11;;;;;;;13.50;6.93;;;;;;;10.81;67.80;101976.81;5053958;28;20025;-69
2021/10/17 07:25:58;;;;;;;13.82;6.15;;;;;;;10.91;67.52;101976.69;5053541;28;20395;-69
2021/10/17 07:28:23;;;;;;;19.23;6.90;;;;;;;10.94;67.58;101975.56;5053532;28;20107;-69
2021/10/17 07:30:48;;;;;;;16.55;6.32;;;;;;;11.01;67.95;101979.94;5052803;28;20025;-70
2021/10/17 07:33:14;;;;;;;20.48;6.68;;;;;;;11.09;67.45;101975.75;5052206;28;20120;-69
2021/10/17 07:35:39;;;;;;;15.13;6.90;;;;;;;11.15;67.44;101981.06;5055392;28;20023;-69
2021/10/17 07:38:04;;;;;;;16.83;6.40;;;;;;;11.08;67.47;101987.88;5053584;28;20020;-70
2021/10/17 07:40:29;;;;;;;13.68;6.82;;;;;;;11.01;67.96;101979.13;5053392;28;20036;-70
2021/10/17 07:42:55;;;;;;;23.70;6.68;;;;;;;11.02;67.77;101966.03;5054258;28;20028;-71
2021/10/17 07:45:20;;;;;;;17.73;6.68;;;;;;;10.95;68.57;101980.56;5056390;28;20108;-72
2021/10/17 07:47:45;;;;;;;17.20;6.65;;;;;;;10.99;68.09;101968.13;5055424;28;20029;-72
2021/10/17 07:50:11;;;;;;;16.65;6.63;;;;;;;11.01;68.59;101982.50;5054332;28;20036;-70
2021/10/17 07:52:36;;;;;;;15.85;7.03;;;;;;;11.09;68.50;101988.69;5053084;28;20154;-70
2021/10/17 07:55:06;;;;;;;17.77;6.18;;;;;;;11.05;69.15;101980.44;5053855;28;20040;-69
2021/10/17 07:57:52;;;;;;;15.75;6.55;;;;;;;10.94;68.36;101953.09;5051983;28;20025;-71
2021/10/17 08:00:20;;;;;;;18.95;6.53;;;;;;;11.19;68.30;101990.16;5053757;28;20364;-70
2021/10/17 08:02:45;;;;;;;15.43;6.47;;;;;;;11.16;68.46;101992.22;5053199;28;20549;-69
2021/10/17 08:05:11;;;;;;;25.52;6.60;;;;;;;11.20;67.78;101993.53;5051789;28;20020;-69
2021/10/17 08:07:36;;;;;;;13.88;6.68;;;;;;;11.09;68.13;101980.91;5054062;28;20480;-70
2021/10/17 08:10:02;;;;;;;11.65;5.75;;;;;;;11.26;67.49;101992.91;5053126;28;20380;-69
2021/10/17 08:12:27;;;;;;;17.75;7.45;;;;;;;11.23;68.30;101988.84;5051840;28;20032;-69
2021/10/17 08:14:52;;;;;;;19.25;6.50;;;;;;;11.36;67.58;101993.53;5052809;28;20028;-70
2021/10/17 08:17:18;;;;;;;21.30;6.95;;;;;;;11.24;67.71;101979.31;5055312;28;20017;-69
2021/10/17 08:19:43;;;;;;;17.08;7.90;;;;;;;11.58;67.11;101994.66;5054209;28;20028;-69
2021/10/17 08:22:08;;;;;;;19.65;7.05;;;;;;;11.44;67.03;101965.06;5053075;28;20021;-72
2021/10/17 08:24:33;;;;;;;18.50;7.65;;;;;;;11.78;66.26;101996.91;5055172;28;20047;-69
2021/10/17 08:26:59;;;;;;;22.30;6.68;;;;;;;11.88;66.02;101993.19;5053156;28;20025;-69
2021/10/17 08:29:24;;;;;;;18.15;7.03;;;;;;;11.74;66.28;101988.66;5053469;28;20029;-70
2021/10/17 08:31:49;;;;;;;18.35;7.07;;;;;;;11.75;66.10;101996.25;5053112;28;20024;-71
2021/10/17 08:34:15;;;;;;;20.15;6.53;;;;;;;11.68;66.11;101994.47;5052950;28;20025;-69
2021/10/17 08:36:40;;;;;;;18.92;7.07;;;;;;;11.65;66.95;101990.44;5052801;28;20395;-70
2021/10/17 08:39:05;;;;;;;14.23;6.50;;;;;;;11.61;66.58;101988.34;5052779;28;20025;-70
2021/10/17 08:41:30;;;;;;;21.75;7.72;;;;;;;11.67;67.58;101991.06;5054282;28;20142;-70
2021/10/17 08:43:56;;;;;;;20.58;6.80;;;;;;;11.73;66.54;101967.09;5056521;28;20112;-70
2021/10/17 08:46:22;;;;;;;20.10;6.57;;;;;;;11.91;66.02;101992.03;5056972;28;20091;-69
2021/10/17 08:48:53;;;;;;;24.08;7.40;;;;;;;12.00;65.96;101987.63;5056440;28;20099;-69
2021/10/17 08:51:23;;;;;;;17.63;6.63;;;;;;;12.14;66.31;101992.94;5057030;28;20049;-70
2021/10/17 08:53:48;;;;;;;24.25;6.55;;;;;;;12.02;65.78;101988.28;5056237;28;20132;-70
2021/10/17 08:56:14;;;;;;;17.85;6.95;;;;;;;11.87;66.09;101990.75;5056316;28;20059;-70
2021/10/17 08:58:39;;;;;;;17.13;6.75;;;;;;;11.99;66.30;101986.03;5056305;28;20024;-70
2021/10/17 09:01:16;;;;;;;18.00;7.03;;;;;;;11.93;66.20;101990.88;5056854;28;20029;-69
2021/10/17 09:07:21;;;;;;;21.20;6.35;;;;;;;11.96;66.39;101981.97;5056305;28;20117;-69
2021/10/17 09:10:05;;;;;;;17.25;7.18;;;;;;;12.05;66.04;101983.56;5056200;28;20475;-69
2021/10/17 09:12:30;;;;;;;20.20;6.75;;;;;;;12.32;65.83;101987.53;5055955;28;20491;-69
2021/10/17 09:15:20;;;;;;;20.25;6.90;;;;;;;12.49;64.68;101985.66;5056209;28;20027;-70
2021/10/17 09:18:20;;;;;;;18.63;7.05;;;;;;;12.51;64.54;101983.69;5056105;28;20031;-70
2021/10/17 09:20:45;;;;;;;16.40;5.97;;;;;;;12.62;64.29;101996.28;5055805;28;20027;-70
2021/10/17 09:23:10;;;;;;;15.97;5.97;;;;;;;12.97;63.55;101991.53;5055636;28;20336;-70
2021/10/17 09:25:37;;;;;;;16.63;6.47;;;;;;;13.12;62.43;101993.34;5054133;28;20296;-70
2021/10/17 09:28:23;;;;;;;14.07;6.50;;;;;;;13.51;61.67;101991.44;5054493;28;20525;-70
2021/10/17 09:31:13;;;;;;;14.35;6.32;;;;;;;13.98;58.35;101986.91;5056285;28;20062;-70
2021/10/17 09:33:53;;;;;;;15.77;6.40;;;;;;;13.65;60.23;101989.06;5055641;28;20476;-70
2021/10/17 09:36:21;;;;;;;14.60;6.00;;;;;;;13.58;60.85;101990.72;5055398;28;20024;-70
2021/10/17 09:38:51;;;;;;;11.82;6.07;;;;;;;13.69;59.84;101996.28;5055441;28;20033;-70
2021/10/17 09:41:31;;;;;;;15.15;6.57;;;;;;;13.91;60.55;101999.81;5055656;28;20029;-70
2021/10/17 09:43:58;;;;;;;14.30;6.97;;;;;;;13.49;60.21;101998.63;5054144;28;20149;-68
2021/10/17 09:46:24;;;;;;;20.77;6.53;;;;;;;13.52;59.85;101994.84;5055068;28;20029;-69
2021/10/17 09:48:50;;;;;;;17.15;6.38;;;;;;;13.57;59.88;101999.50;5055432;28;20070;-68
2021/10/17 09:51:22;;;;;;;17.77;6.38;;;;;;;13.79;59.16;101990.84;5055224;28;20028;-71
2021/10/17 09:53:51;;;;;;;12.50;6.05;;;;;;;14.18;57.38;102002.75;5052919;28;20091;-69
2021/10/17 09:56:29;;;;;;;15.82;6.55;;;;;;;14.49;56.28;101996.53;5053744;28;20017;-70
2021/10/17 09:58:55;;;;;;;13.57;5.63;;;;;;;15.03;54.99;101988.31;5055314;28;20033;-69
2021/10/17 10:01:25;;;;;;;12.55;5.60;;;;;;;16.89;50.19;101991.91;5054967;28;20025;-69
2021/10/17 10:03:55;;;;;;;15.30;6.03;;;;;;;19.42;43.72;101994.34;5055053;28;20032;-69
2021/10/17 10:06:22;;;;;;;16.13;5.93;;;;;;;19.29;43.62;101990.03;5053510;28;20490;-70
2021/10/17 10:08:51;;;;;;;18.45;6.03;;;;;;;15.83;51.33;101981.91;5054806;28;20024;-70
2021/10/17 10:11:24;;;;;;;13.18;5.97;;;;;;;14.84;54.41;101989.72;5054722;28;20388;-70
2021/10/17 10:13:51;;;;;;;13.48;5.50;;;;;;;14.57;55.57;101999.06;5055028;28;20025;-69
2021/10/17 10:16:20;;;;;;;13.68;6.40;;;;;;;14.75;55.93;101975.22;5053458;28;20067;-70
2021/10/17 10:18:47;;;;;;;10.90;5.45;;;;;;;15.08;55.02;101993.75;5055010;28;20031;-69
2021/10/17 10:21:13;;;;;;;13.90;5.97;;;;;;;14.83;55.01;101991.53;5055107;28;20029;-70
2021/10/17 10:23:39;;;;;;;12.48;5.65;;;;;;;14.64;55.56;101979.09;5054512;28;20036;-70
2021/10/17 10:26:05;;;;;;;15.43;5.63;;;;;;;14.91;54.78;101984.59;5054398;28;20025;-70
2021/10/17 10:28:31;;;;;;;13.93;5.88;;;;;;;15.73;53.50;101979.63;5054630;28;20498;-70
2021/10/17 10:30:56;;;;;;;16.77;5.82;;;;;;;16.40;51.06;101978.13;5054423;28;20025;-70
2021/10/17 10:33:21;;;;;;;12.50;5.72;;;;;;;17.03;49.67;101977.03;5054330;28;20498;-70
2021/10/17 10:36:16;;;;;;;12.98;5.55;;;;;;;17.21;48.69;101986.91;5054297;28;20017;-70
2021/10/17 10:38:53;;;;;;;12.65;5.45;;;;;;;17.50;47.93;101991.69;5054605;28;20029;-70
2021/10/17 10:41:22;;;;;;;10.98;4.95;;;;;;;17.99;46.07;101987.78;5054005;28;20123;-70
2021/10/17 10:43:49;;;;;;;9.63;5.15;;;;;;;17.74;46.15;101984.22;5054276;28;20029;-70
2021/10/17 10:46:28;;;;;;;9.18;5.22;;;;;;;17.38;46.70;101988.09;5053962;28;20063;-70
2021/10/17 10:48:53;;;;;;;10.60;4.95;;;;;;;17.40;46.58;101978.22;5054021;28;20079;-68
2021/10/17 10:51:39;;;;;;;8.80;4.70;;;;;;;16.88;47.99;101980.66;5052699;28;20029;-70
2021/10/17 10:54:23;;;;;;;11.60;4.88;;;;;;;17.26;47.10;101989.69;5053681;28;20358;-70
2021/10/17 10:56:49;;;;;;;11.10;4.80;;;;;;;17.25;47.38;101982.88;5052866;28;20028;-69
2021/10/17 10:59:16;;;;;;;11.82;5.18;;;;;;;17.56;46.66;101977.00;5054174;28;20021;-71
2021/10/17 11:02:19;;;;;;;12.85;4.53;;;;;;;17.36;47.05;101982.28;5054157;28;20065;-69
2021/10/17 11:04:44;;;;;;;10.23;4.25;;;;;;;16.67;47.07;101979.00;5053899;28;20063;-69
2021/10/17 11:07:20;;;;;;;10.98;4.10;;;;;;;16.99;46.45;101973.22;5053731;28;20451;-70
2021/10/17 11:09:48;;;;;;;11.68;4.07;;;;;;;17.77;45.41;101979.38;5053799;28;20021;-69
2021/10/17 11:12:38;;;;;;;9.32;4.15;;;;;;;18.29;43.18;101979.41;5053782;28;20024;-68
2021/10/17 11:15:03;;;;;;;8.15;4.03;;;;;;;18.72;42.60;101971.69;5053638;28;20090;-69
2021/10/17 11:17:29;;;;;;;9.48;3.90;;;;;;;19.95;40.22;101979.91;5053839;28;20025;-69
2021/10/17 11:19:54;;;;;;;10.23;3.95;;;;;;;20.87;38.10;101969.16;5054075;28;20024;-70
2021/10/17 11:22:19;;;;;;;10.75;4.00;;;;;;;20.52;37.75;101962.00;5052280;28;20116;-68
2021/10/17 11:24:49;;;;;;;7.57;3.50;;;;;;;19.56;40.26;101964.38;5053426;28;20033;-68